sensor_id;sensor_type;location;lat;lon;timestamp;temperature;humidity
18043;DHT22;9146;48.074;11.968;2023-05-19T00:01:21;8.10;99.90
18043;DHT22;9146;48.074;11.968;2023-05-19T00:03:51;8.10;99.90
18043;DHT22;9146;48.074;11.968;2023-05-19T00:06:21;8.10;99.90
18043;DHT22;9146;48.074;11.968;2023-05-19T00:08:49;8.10;99.90
18043;DHT22;9146;48.074;11.968;2023-05-19T00:11:20;8.10;99.90
18043;DHT22;9146;48.074;11.968;2023-05-19T00:13:48;8.10;99.90
18043;DHT22;9146;48.074;11.968;2023-05-19T00:16:16;8.10;99.90
18043;DHT22;9146;48.074;11.968;2023-05-19T00:18:44;8.10;99.90
18043;DHT22;9146;48.074;11.968;2023-05-19T00:21:11;8.10;99.90
18043;DHT22;9146;48.074;11.968;2023-05-19T00:23:39;8.10;99.90
18043;DHT22;9146;48.074;11.968;2023-05-19T00:26:06;8.10;99.90
18043;DHT22;9146;48.074;11.968;2023-05-19T00:28:33;8.10;99.90
18043;DHT22;9146;48.074;11.968;2023-05-19T00:31:00;8.10;99.90
18043;DHT22;9146;48.074;11.968;2023-05-19T00:33:27;8.10;99.90
18043;DHT22;9146;48.074;11.968;2023-05-19T00:35:55;8.10;99.90
18043;DHT22;9146;48.074;11.968;2023-05-19T00:38:22;8.10;99.90
18043;DHT22;9146;48.074;11.968;2023-05-19T00:40:49;8.10;99.90
18043;DHT22;9146;48.074;11.968;2023-05-19T00:43:16;8.10;99.90
18043;DHT22;9146;48.074;11.968;2023-05-19T00:45:43;8.10;99.90
18043;DHT22;9146;48.074;11.968;2023-05-19T00:48:11;8.10;99.90
18043;DHT22;9146;48.074;11.968;2023-05-19T00:50:39;8.10;99.90
18043;DHT22;9146;48.074;11.968;2023-05-19T00:53:07;8.10;99.90
18043;DHT22;9146;48.074;11.968;2023-05-19T00:55:36;8.10;99.90
18043;DHT22;9146;48.074;11.968;2023-05-19T00:58:05;8.10;99.90
18043;DHT22;9146;48.074;11.968;2023-05-19T01:00:33;8.10;99.90
18043;DHT22;9146;48.074;11.968;2023-05-19T01:03:01;8.10;99.90
18043;DHT22;9146;48.074;11.968;2023-05-19T01:05:36;8.10;99.90
18043;DHT22;9146;48.074;11.968;2023-05-19T01:08:03;8.10;99.90
18043;DHT22;9146;48.074;11.968;2023-05-19T01:10:32;8.10;99.90
18043;DHT22;9146;48.074;11.968;2023-05-19T01:12:58;8.10;99.90
18043;DHT22;9146;48.074;11.968;2023-05-19T01:15:26;8.10;99.90
18043;DHT22;9146;48.074;11.968;2023-05-19T01:18:00;8.10;99.90
18043;DHT22;9146;48.074;11.968;2023-05-19T01:20:33;8.10;99.90
18043;DHT22;9146;48.074;11.968;2023-05-19T01:23:19;8.10;99.90
18043;DHT22;9146;48.074;11.968;2023-05-19T01:26:13;8.10;99.90
18043;DHT22;9146;48.074;11.968;2023-05-19T01:31:52;8.10;99.90
18043;DHT22;9146;48.074;11.968;2023-05-19T01:34:20;8.10;99.90
18043;DHT22;9146;48.074;11.968;2023-05-19T01:36:49;8.10;99.90
18043;DHT22;9146;48.074;11.968;2023-05-19T01:39:17;8.10;99.90
18043;DHT22;9146;48.074;11.968;2023-05-19T01:41:46;8.10;99.90
18043;DHT22;9146;48.074;11.968;2023-05-19T01:44:13;8.10;99.90
18043;DHT22;9146;48.074;11.968;2023-05-19T01:46:40;8.10;99.90
18043;DHT22;9146;48.074;11.968;2023-05-19T01:49:09;8.10;99.90
18043;DHT22;9146;48.074;11.968;2023-05-19T01:51:36;8.10;99.90
18043;DHT22;9146;48.074;11.968;2023-05-19T01:54:03;8.10;99.90
18043;DHT22;9146;48.074;11.968;2023-05-19T01:56:45;8.10;99.90
18043;DHT22;9146;48.074;11.968;2023-05-19T01:59:23;8.10;99.90
18043;DHT22;9146;48.074;11.968;2023-05-19T02:01:56;8.10;99.90
18043;DHT22;9146;48.074;11.968;2023-05-19T02:04:30;8.10;99.90
18043;DHT22;9146;48.074;11.968;2023-05-19T02:07:11;8.10;99.90
18043;DHT22;9146;48.074;11.968;2023-05-19T02:09:46;8.10;99.90
18043;DHT22;9146;48.074;11.968;2023-05-19T02:12:21;8.00;99.90
18043;DHT22;9146;48.074;11.968;2023-05-19T02:14:54;8.00;99.90
18043;DHT22;9146;48.074;11.968;2023-05-19T02:17:26;8.00;99.90
18043;DHT22;9146;48.074;11.968;2023-05-19T02:19:55;8.00;99.90
18043;DHT22;9146;48.074;11.968;2023-05-19T02:22:22;8.00;99.90
18043;DHT22;9146;48.074;11.968;2023-05-19T02:24:49;8.00;99.90
18043;DHT22;9146;48.074;11.968;2023-05-19T02:27:16;8.00;99.90
18043;DHT22;9146;48.074;11.968;2023-05-19T02:29:43;8.00;99.90
18043;DHT22;9146;48.074;11.968;2023-05-19T02:32:10;8.00;99.90
18043;DHT22;9146;48.074;11.968;2023-05-19T02:34:37;8.00;99.90
18043;DHT22;9146;48.074;11.968;2023-05-19T02:37:06;7.90;99.90
18043;DHT22;9146;48.074;11.968;2023-05-19T02:39:32;7.90;99.90
18043;DHT22;9146;48.074;11.968;2023-05-19T02:42:00;7.90;99.90
18043;DHT22;9146;48.074;11.968;2023-05-19T02:44:27;7.90;99.90
18043;DHT22;9146;48.074;11.968;2023-05-19T02:46:54;7.90;99.90
18043;DHT22;9146;48.074;11.968;2023-05-19T02:49:21;7.90;99.90
18043;DHT22;9146;48.074;11.968;2023-05-19T02:51:48;7.90;99.90
18043;DHT22;9146;48.074;11.968;2023-05-19T02:54:16;7.90;99.90
18043;DHT22;9146;48.074;11.968;2023-05-19T02:56:43;7.90;99.90
18043;DHT22;9146;48.074;11.968;2023-05-19T02:59:10;7.90;99.90
18043;DHT22;9146;48.074;11.968;2023-05-19T03:01:36;7.90;99.90
18043;DHT22;9146;48.074;11.968;2023-05-19T03:04:04;7.90;99.90
18043;DHT22;9146;48.074;11.968;2023-05-19T03:06:31;7.90;99.90
18043;DHT22;9146;48.074;11.968;2023-05-19T03:08:58;7.90;99.90
18043;DHT22;9146;48.074;11.968;2023-05-19T03:11:27;7.90;99.90
18043;DHT22;9146;48.074;11.968;2023-05-19T03:13:55;7.90;99.90
18043;DHT22;9146;48.074;11.968;2023-05-19T03:16:22;7.90;99.90
18043;DHT22;9146;48.074;11.968;2023-05-19T03:18:49;7.90;99.90
18043;DHT22;9146;48.074;11.968;2023-05-19T03:21:16;7.90;99.90
18043;DHT22;9146;48.074;11.968;2023-05-19T03:23:43;7.90;99.90
18043;DHT22;9146;48.074;11.968;2023-05-19T03:26:10;7.90;99.90
18043;DHT22;9146;48.074;11.968;2023-05-19T03:28:38;7.90;99.90
18043;DHT22;9146;48.074;11.968;2023-05-19T03:31:05;7.90;99.90
18043;DHT22;9146;48.074;11.968;2023-05-19T03:33:32;7.90;99.90
18043;DHT22;9146;48.074;11.968;2023-05-19T03:35:59;7.90;99.90
18043;DHT22;9146;48.074;11.968;2023-05-19T03:38:26;7.90;99.90
18043;DHT22;9146;48.074;11.968;2023-05-19T03:40:52;7.90;99.90
18043;DHT22;9146;48.074;11.968;2023-05-19T03:43:19;7.90;99.90
18043;DHT22;9146;48.074;11.968;2023-05-19T03:45:48;7.90;99.90
18043;DHT22;9146;48.074;11.968;2023-05-19T03:48:15;7.90;99.90
18043;DHT22;9146;48.074;11.968;2023-05-19T03:50:41;7.90;99.90
18043;DHT22;9146;48.074;11.968;2023-05-19T03:53:10;7.90;99.90
18043;DHT22;9146;48.074;11.968;2023-05-19T03:55:38;7.90;99.90
18043;DHT22;9146;48.074;11.968;2023-05-19T03:58:05;8.00;99.90
18043;DHT22;9146;48.074;11.968;2023-05-19T04:00:31;8.00;99.90
18043;DHT22;9146;48.074;11.968;2023-05-19T04:03:00;8.00;99.90
18043;DHT22;9146;48.074;11.968;2023-05-19T04:05:26;8.00;99.90
18043;DHT22;9146;48.074;11.968;2023-05-19T04:07:53;8.00;99.90
18043;DHT22;9146;48.074;11.968;2023-05-19T04:10:20;8.00;99.90
18043;DHT22;9146;48.074;11.968;2023-05-19T04:12:47;8.10;99.90
18043;DHT22;9146;48.074;11.968;2023-05-19T04:15:14;8.10;99.90
18043;DHT22;9146;48.074;11.968;2023-05-19T04:17:42;8.10;99.90
18043;DHT22;9146;48.074;11.968;2023-05-19T04:20:12;8.10;99.90
18043;DHT22;9146;48.074;11.968;2023-05-19T04:22:39;8.10;99.90
18043;DHT22;9146;48.074;11.968;2023-05-19T04:25:06;8.20;99.90
18043;DHT22;9146;48.074;11.968;2023-05-19T04:27:34;8.20;99.90
18043;DHT22;9146;48.074;11.968;2023-05-19T04:30:03;8.20;99.90
18043;DHT22;9146;48.074;11.968;2023-05-19T04:32:31;8.30;99.90
18043;DHT22;9146;48.074;11.968;2023-05-19T04:34:58;8.30;99.90
18043;DHT22;9146;48.074;11.968;2023-05-19T04:37:26;8.40;99.90
18043;DHT22;9146;48.074;11.968;2023-05-19T04:39:54;8.40;99.90
18043;DHT22;9146;48.074;11.968;2023-05-19T04:42:21;8.40;99.90
18043;DHT22;9146;48.074;11.968;2023-05-19T04:44:50;8.50;99.90
18043;DHT22;9146;48.074;11.968;2023-05-19T04:47:17;8.50;99.90
18043;DHT22;9146;48.074;11.968;2023-05-19T04:49:45;8.60;99.90
18043;DHT22;9146;48.074;11.968;2023-05-19T04:52:12;8.60;99.90
18043;DHT22;9146;48.074;11.968;2023-05-19T04:54:41;8.70;99.90
18043;DHT22;9146;48.074;11.968;2023-05-19T04:57:09;8.80;99.90
18043;DHT22;9146;48.074;11.968;2023-05-19T04:59:37;8.90;99.90
18043;DHT22;9146;48.074;11.968;2023-05-19T05:02:04;8.90;99.90
18043;DHT22;9146;48.074;11.968;2023-05-19T05:04:31;9.00;99.90
18043;DHT22;9146;48.074;11.968;2023-05-19T05:06:58;9.00;99.90
18043;DHT22;9146;48.074;11.968;2023-05-19T05:09:25;9.10;99.90
18043;DHT22;9146;48.074;11.968;2023-05-19T05:11:54;9.20;99.90
18043;DHT22;9146;48.074;11.968;2023-05-19T05:14:21;9.30;99.90
18043;DHT22;9146;48.074;11.968;2023-05-19T05:16:49;9.40;99.90
18043;DHT22;9146;48.074;11.968;2023-05-19T05:19:16;9.50;99.90
18043;DHT22;9146;48.074;11.968;2023-05-19T05:21:44;9.60;99.90
18043;DHT22;9146;48.074;11.968;2023-05-19T05:24:14;9.70;99.90
18043;DHT22;9146;48.074;11.968;2023-05-19T05:26:41;9.80;99.90
18043;DHT22;9146;48.074;11.968;2023-05-19T05:29:10;9.90;99.90
18043;DHT22;9146;48.074;11.968;2023-05-19T05:31:36;9.90;99.90
18043;DHT22;9146;48.074;11.968;2023-05-19T05:34:03;10.00;99.90
18043;DHT22;9146;48.074;11.968;2023-05-19T05:36:30;10.10;99.90
18043;DHT22;9146;48.074;11.968;2023-05-19T05:38:59;10.10;99.90
18043;DHT22;9146;48.074;11.968;2023-05-19T05:41:26;10.30;99.90
18043;DHT22;9146;48.074;11.968;2023-05-19T05:43:53;10.50;99.90
18043;DHT22;9146;48.074;11.968;2023-05-19T05:46:22;10.60;99.90
18043;DHT22;9146;48.074;11.968;2023-05-19T05:48:49;10.80;99.90
18043;DHT22;9146;48.074;11.968;2023-05-19T05:51:17;10.80;99.90
18043;DHT22;9146;48.074;11.968;2023-05-19T05:53:44;10.80;99.90
18043;DHT22;9146;48.074;11.968;2023-05-19T05:56:13;10.80;99.90
18043;DHT22;9146;48.074;11.968;2023-05-19T05:58:42;10.70;99.90
18043;DHT22;9146;48.074;11.968;2023-05-19T06:01:09;10.70;99.90
18043;DHT22;9146;48.074;11.968;2023-05-19T06:03:40;10.80;99.90
18043;DHT22;9146;48.074;11.968;2023-05-19T06:06:07;10.90;99.90
18043;DHT22;9146;48.074;11.968;2023-05-19T06:08:34;11.00;99.90
18043;DHT22;9146;48.074;11.968;2023-05-19T06:11:02;11.20;99.90
18043;DHT22;9146;48.074;11.968;2023-05-19T06:13:33;11.30;99.90
18043;DHT22;9146;48.074;11.968;2023-05-19T06:16:01;11.30;99.90
18043;DHT22;9146;48.074;11.968;2023-05-19T06:18:27;11.20;99.90
18043;DHT22;9146;48.074;11.968;2023-05-19T06:20:56;11.20;99.90
18043;DHT22;9146;48.074;11.968;2023-05-19T06:23:23;11.20;99.90
18043;DHT22;9146;48.074;11.968;2023-05-19T06:25:51;11.30;99.90
18043;DHT22;9146;48.074;11.968;2023-05-19T06:28:18;11.40;99.90
18043;DHT22;9146;48.074;11.968;2023-05-19T06:30:45;11.40;99.90
18043;DHT22;9146;48.074;11.968;2023-05-19T06:33:12;11.60;99.90
18043;DHT22;9146;48.074;11.968;2023-05-19T06:35:39;11.60;99.90
18043;DHT22;9146;48.074;11.968;2023-05-19T06:38:07;11.80;99.90
18043;DHT22;9146;48.074;11.968;2023-05-19T06:40:35;11.90;99.90
18043;DHT22;9146;48.074;11.968;2023-05-19T06:43:02;12.00;99.90
18043;DHT22;9146;48.074;11.968;2023-05-19T06:45:29;12.10;99.90
18043;DHT22;9146;48.074;11.968;2023-05-19T06:47:56;12.20;99.90
18043;DHT22;9146;48.074;11.968;2023-05-19T06:50:23;12.20;99.90
18043;DHT22;9146;48.074;11.968;2023-05-19T06:52:50;12.30;99.90
18043;DHT22;9146;48.074;11.968;2023-05-19T06:55:19;12.30;99.90
18043;DHT22;9146;48.074;11.968;2023-05-19T06:57:46;12.40;99.90
18043;DHT22;9146;48.074;11.968;2023-05-19T07:00:13;12.40;99.90
18043;DHT22;9146;48.074;11.968;2023-05-19T07:02:41;12.40;99.90
18043;DHT22;9146;48.074;11.968;2023-05-19T07:05:09;12.40;99.90
18043;DHT22;9146;48.074;11.968;2023-05-19T07:07:35;12.40;99.90
18043;DHT22;9146;48.074;11.968;2023-05-19T07:10:03;12.40;99.90
18043;DHT22;9146;48.074;11.968;2023-05-19T07:12:31;12.30;99.90
18043;DHT22;9146;48.074;11.968;2023-05-19T07:14:58;12.10;99.90
18043;DHT22;9146;48.074;11.968;2023-05-19T07:17:25;12.20;99.90
18043;DHT22;9146;48.074;11.968;2023-05-19T07:19:52;12.30;99.90
18043;DHT22;9146;48.074;11.968;2023-05-19T07:22:18;12.40;99.90
18043;DHT22;9146;48.074;11.968;2023-05-19T07:24:46;12.50;99.90
18043;DHT22;9146;48.074;11.968;2023-05-19T07:27:13;12.70;99.90
18043;DHT22;9146;48.074;11.968;2023-05-19T07:29:41;12.80;99.90
18043;DHT22;9146;48.074;11.968;2023-05-19T07:32:08;12.90;99.90
18043;DHT22;9146;48.074;11.968;2023-05-19T07:34:35;12.90;99.90
18043;DHT22;9146;48.074;11.968;2023-05-19T07:37:02;12.90;99.90
18043;DHT22;9146;48.074;11.968;2023-05-19T07:39:29;13.00;99.90
18043;DHT22;9146;48.074;11.968;2023-05-19T07:41:56;13.10;99.90
18043;DHT22;9146;48.074;11.968;2023-05-19T07:44:23;13.20;99.90
18043;DHT22;9146;48.074;11.968;2023-05-19T07:46:53;13.10;99.90
18043;DHT22;9146;48.074;11.968;2023-05-19T07:49:19;12.90;99.90
18043;DHT22;9146;48.074;11.968;2023-05-19T07:51:46;13.00;99.90
18043;DHT22;9146;48.074;11.968;2023-05-19T07:54:13;13.20;99.90
18043;DHT22;9146;48.074;11.968;2023-05-19T07:56:40;13.50;99.90
18043;DHT22;9146;48.074;11.968;2023-05-19T07:59:07;13.70;99.90
18043;DHT22;9146;48.074;11.968;2023-05-19T08:01:34;13.70;99.90
18043;DHT22;9146;48.074;11.968;2023-05-19T08:04:04;13.70;99.90
18043;DHT22;9146;48.074;11.968;2023-05-19T08:06:31;13.60;99.90
18043;DHT22;9146;48.074;11.968;2023-05-19T08:08:59;13.40;99.90
18043;DHT22;9146;48.074;11.968;2023-05-19T08:11:26;13.30;99.90
18043;DHT22;9146;48.074;11.968;2023-05-19T08:13:53;13.40;99.90
18043;DHT22;9146;48.074;11.968;2023-05-19T08:16:20;13.60;99.90
18043;DHT22;9146;48.074;11.968;2023-05-19T08:18:47;13.90;99.90
18043;DHT22;9146;48.074;11.968;2023-05-19T08:21:15;14.20;99.90
18043;DHT22;9146;48.074;11.968;2023-05-19T08:23:42;14.40;99.90
18043;DHT22;9146;48.074;11.968;2023-05-19T08:26:09;14.60;99.90
18043;DHT22;9146;48.074;11.968;2023-05-19T08:28:36;14.90;99.90
18043;DHT22;9146;48.074;11.968;2023-05-19T08:31:02;15.00;99.90
18043;DHT22;9146;48.074;11.968;2023-05-19T08:33:29;15.00;99.90
18043;DHT22;9146;48.074;11.968;2023-05-19T08:35:56;14.90;99.90
18043;DHT22;9146;48.074;11.968;2023-05-19T08:38:25;14.90;99.90
18043;DHT22;9146;48.074;11.968;2023-05-19T08:40:53;14.80;99.90
18043;DHT22;9146;48.074;11.968;2023-05-19T08:43:20;14.60;99.90
18043;DHT22;9146;48.074;11.968;2023-05-19T08:45:47;14.40;99.90
18043;DHT22;9146;48.074;11.968;2023-05-19T08:48:16;14.30;99.90
18043;DHT22;9146;48.074;11.968;2023-05-19T08:50:50;14.30;99.90
18043;DHT22;9146;48.074;11.968;2023-05-19T08:53:22;14.30;99.90
18043;DHT22;9146;48.074;11.968;2023-05-19T08:56:00;14.40;99.90
18043;DHT22;9146;48.074;11.968;2023-05-19T08:58:28;14.60;99.90
18043;DHT22;9146;48.074;11.968;2023-05-19T09:00:57;14.60;99.90
18043;DHT22;9146;48.074;11.968;2023-05-19T09:03:25;14.60;99.90
18043;DHT22;9146;48.074;11.968;2023-05-19T09:05:53;14.50;99.90
18043;DHT22;9146;48.074;11.968;2023-05-19T09:08:20;14.40;99.90
18043;DHT22;9146;48.074;11.968;2023-05-19T09:10:47;14.30;99.90
18043;DHT22;9146;48.074;11.968;2023-05-19T09:13:15;14.20;99.90
18043;DHT22;9146;48.074;11.968;2023-05-19T09:15:43;14.30;99.90
18043;DHT22;9146;48.074;11.968;2023-05-19T09:18:12;14.40;99.90
18043;DHT22;9146;48.074;11.968;2023-05-19T09:20:40;14.30;99.90
18043;DHT22;9146;48.074;11.968;2023-05-19T09:23:11;14.20;99.90
18043;DHT22;9146;48.074;11.968;2023-05-19T09:25:46;14.10;99.90
18043;DHT22;9146;48.074;11.968;2023-05-19T09:28:22;14.00;99.90
18043;DHT22;9146;48.074;11.968;2023-05-19T09:30:58;13.80;99.90
18043;DHT22;9146;48.074;11.968;2023-05-19T09:33:25;13.70;99.90
18043;DHT22;9146;48.074;11.968;2023-05-19T09:35:53;13.70;99.90
18043;DHT22;9146;48.074;11.968;2023-05-19T09:38:21;13.80;99.90
18043;DHT22;9146;48.074;11.968;2023-05-19T09:40:49;13.90;99.90
18043;DHT22;9146;48.074;11.968;2023-05-19T09:43:18;13.90;99.90
18043;DHT22;9146;48.074;11.968;2023-05-19T09:45:44;13.90;99.90
18043;DHT22;9146;48.074;11.968;2023-05-19T09:48:13;13.90;99.90
18043;DHT22;9146;48.074;11.968;2023-05-19T09:50:42;13.90;99.90
18043;DHT22;9146;48.074;11.968;2023-05-19T09:53:12;13.70;99.90
18043;DHT22;9146;48.074;11.968;2023-05-19T09:55:39;13.60;99.90
18043;DHT22;9146;48.074;11.968;2023-05-19T09:58:07;13.60;99.90
18043;DHT22;9146;48.074;11.968;2023-05-19T10:00:36;13.50;99.90
18043;DHT22;9146;48.074;11.968;2023-05-19T10:03:04;13.50;99.90
18043;DHT22;9146;48.074;11.968;2023-05-19T10:05:32;13.50;99.90
18043;DHT22;9146;48.074;11.968;2023-05-19T10:07:59;13.50;99.90
18043;DHT22;9146;48.074;11.968;2023-05-19T10:10:27;13.60;99.90
18043;DHT22;9146;48.074;11.968;2023-05-19T10:12:55;13.70;99.90
18043;DHT22;9146;48.074;11.968;2023-05-19T10:15:24;13.80;99.90
18043;DHT22;9146;48.074;11.968;2023-05-19T10:17:54;13.70;99.90
18043;DHT22;9146;48.074;11.968;2023-05-19T10:20:21;13.90;99.90
18043;DHT22;9146;48.074;11.968;2023-05-19T10:22:48;14.20;99.90
18043;DHT22;9146;48.074;11.968;2023-05-19T10:25:16;14.40;99.90
18043;DHT22;9146;48.074;11.968;2023-05-19T10:27:50;14.60;99.90
18043;DHT22;9146;48.074;11.968;2023-05-19T10:30:24;14.90;99.90
18043;DHT22;9146;48.074;11.968;2023-05-19T10:32:54;15.20;99.90
18043;DHT22;9146;48.074;11.968;2023-05-19T10:36:01;15.40;99.90
18043;DHT22;9146;48.074;11.968;2023-05-19T10:38:39;15.50;99.90
18043;DHT22;9146;48.074;11.968;2023-05-19T10:41:10;15.80;99.90
18043;DHT22;9146;48.074;11.968;2023-05-19T10:43:51;15.90;99.90
18043;DHT22;9146;48.074;11.968;2023-05-19T10:46:23;16.10;99.90
18043;DHT22;9146;48.074;11.968;2023-05-19T10:48:51;16.20;99.90
18043;DHT22;9146;48.074;11.968;2023-05-19T10:51:18;16.30;99.90
18043;DHT22;9146;48.074;11.968;2023-05-19T10:53:45;16.20;99.90
18043;DHT22;9146;48.074;11.968;2023-05-19T10:56:27;16.10;99.90
18043;DHT22;9146;48.074;11.968;2023-05-19T10:59:01;15.90;99.90
18043;DHT22;9146;48.074;11.968;2023-05-19T11:01:30;15.70;99.90
18043;DHT22;9146;48.074;11.968;2023-05-19T11:04:04;15.60;99.90
18043;DHT22;9146;48.074;11.968;2023-05-19T11:06:32;15.50;99.90
18043;DHT22;9146;48.074;11.968;2023-05-19T11:09:03;15.50;99.90
18043;DHT22;9146;48.074;11.968;2023-05-19T11:11:45;15.30;99.90
18043;DHT22;9146;48.074;11.968;2023-05-19T11:14:13;15.00;99.90
18043;DHT22;9146;48.074;11.968;2023-05-19T11:16:41;14.90;99.90
18043;DHT22;9146;48.074;11.968;2023-05-19T11:19:18;14.80;99.90
18043;DHT22;9146;48.074;11.968;2023-05-19T11:21:49;14.80;99.90
18043;DHT22;9146;48.074;11.968;2023-05-19T11:24:39;14.60;99.90
18043;DHT22;9146;48.074;11.968;2023-05-19T11:27:25;14.70;99.90
18043;DHT22;9146;48.074;11.968;2023-05-19T11:29:54;14.70;99.90
18043;DHT22;9146;48.074;11.968;2023-05-19T11:32:24;15.00;99.90
18043;DHT22;9146;48.074;11.968;2023-05-19T11:34:54;15.30;99.90
18043;DHT22;9146;48.074;11.968;2023-05-19T11:37:21;15.50;99.90
18043;DHT22;9146;48.074;11.968;2023-05-19T11:39:48;15.70;99.90
18043;DHT22;9146;48.074;11.968;2023-05-19T11:42:16;15.80;99.90
18043;DHT22;9146;48.074;11.968;2023-05-19T11:44:44;15.60;99.90
18043;DHT22;9146;48.074;11.968;2023-05-19T11:47:11;15.60;99.90
18043;DHT22;9146;48.074;11.968;2023-05-19T11:49:42;15.30;99.90
18043;DHT22;9146;48.074;11.968;2023-05-19T11:52:11;15.00;99.90
18043;DHT22;9146;48.074;11.968;2023-05-19T11:54:39;14.80;99.90
18043;DHT22;9146;48.074;11.968;2023-05-19T11:57:07;14.60;99.90
18043;DHT22;9146;48.074;11.968;2023-05-19T11:59:36;14.40;99.90
18043;DHT22;9146;48.074;11.968;2023-05-19T12:02:15;14.30;99.90
18043;DHT22;9146;48.074;11.968;2023-05-19T12:04:43;14.30;99.90
18043;DHT22;9146;48.074;11.968;2023-05-19T12:07:12;14.30;99.90
18043;DHT22;9146;48.074;11.968;2023-05-19T12:09:42;14.30;99.90
18043;DHT22;9146;48.074;11.968;2023-05-19T12:12:12;14.30;99.90
18043;DHT22;9146;48.074;11.968;2023-05-19T12:14:40;14.20;99.90
18043;DHT22;9146;48.074;11.968;2023-05-19T12:17:11;14.10;99.90
18043;DHT22;9146;48.074;11.968;2023-05-19T12:19:39;14.00;99.90
18043;DHT22;9146;48.074;11.968;2023-05-19T12:22:06;14.00;99.90
18043;DHT22;9146;48.074;11.968;2023-05-19T12:24:36;14.10;99.90
18043;DHT22;9146;48.074;11.968;2023-05-19T12:27:09;14.40;99.90
18043;DHT22;9146;48.074;11.968;2023-05-19T12:29:38;14.80;99.90
18043;DHT22;9146;48.074;11.968;2023-05-19T12:32:06;15.00;99.90
18043;DHT22;9146;48.074;11.968;2023-05-19T12:34:35;15.10;99.90
18043;DHT22;9146;48.074;11.968;2023-05-19T12:37:03;15.00;99.90
18043;DHT22;9146;48.074;11.968;2023-05-19T12:39:30;14.90;99.90
18043;DHT22;9146;48.074;11.968;2023-05-19T12:42:06;14.90;99.90
18043;DHT22;9146;48.074;11.968;2023-05-19T12:44:36;14.90;99.90
18043;DHT22;9146;48.074;11.968;2023-05-19T12:47:03;15.00;99.90
18043;DHT22;9146;48.074;11.968;2023-05-19T12:49:31;15.10;99.90
18043;DHT22;9146;48.074;11.968;2023-05-19T12:52:00;15.10;99.90
18043;DHT22;9146;48.074;11.968;2023-05-19T12:54:31;15.20;99.90
18043;DHT22;9146;48.074;11.968;2023-05-19T12:56:59;15.30;99.90
18043;DHT22;9146;48.074;11.968;2023-05-19T12:59:27;15.40;99.90
18043;DHT22;9146;48.074;11.968;2023-05-19T13:01:55;15.50;99.90
18043;DHT22;9146;48.074;11.968;2023-05-19T13:04:22;15.70;99.90
18043;DHT22;9146;48.074;11.968;2023-05-19T13:06:49;16.10;99.90
18043;DHT22;9146;48.074;11.968;2023-05-19T13:09:16;16.40;99.90
18043;DHT22;9146;48.074;11.968;2023-05-19T13:11:44;16.70;99.90
18043;DHT22;9146;48.074;11.968;2023-05-19T13:14:15;17.00;99.90
18043;DHT22;9146;48.074;11.968;2023-05-19T13:16:44;17.10;99.90
18043;DHT22;9146;48.074;11.968;2023-05-19T13:19:13;17.10;99.90
18043;DHT22;9146;48.074;11.968;2023-05-19T13:21:39;17.00;99.90
18043;DHT22;9146;48.074;11.968;2023-05-19T13:24:06;17.00;99.90
18043;DHT22;9146;48.074;11.968;2023-05-19T13:26:33;17.00;99.90
18043;DHT22;9146;48.074;11.968;2023-05-19T13:29:01;17.00;99.90
18043;DHT22;9146;48.074;11.968;2023-05-19T13:31:28;17.00;99.90
18043;DHT22;9146;48.074;11.968;2023-05-19T13:33:57;17.10;99.90
18043;DHT22;9146;48.074;11.968;2023-05-19T13:36:25;17.30;99.90
18043;DHT22;9146;48.074;11.968;2023-05-19T13:38:52;17.30;99.90
18043;DHT22;9146;48.074;11.968;2023-05-19T13:41:22;17.50;99.90
18043;DHT22;9146;48.074;11.968;2023-05-19T13:43:50;17.60;99.90
18043;DHT22;9146;48.074;11.968;2023-05-19T13:46:17;17.80;99.90
18043;DHT22;9146;48.074;11.968;2023-05-19T13:48:44;17.70;99.90
18043;DHT22;9146;48.074;11.968;2023-05-19T13:51:12;17.70;99.90
18043;DHT22;9146;48.074;11.968;2023-05-19T13:53:39;18.00;99.90
18043;DHT22;9146;48.074;11.968;2023-05-19T13:56:07;18.10;99.90
18043;DHT22;9146;48.074;11.968;2023-05-19T13:58:33;18.20;99.90
18043;DHT22;9146;48.074;11.968;2023-05-19T14:01:01;18.20;99.90
18043;DHT22;9146;48.074;11.968;2023-05-19T14:03:27;18.20;99.90
18043;DHT22;9146;48.074;11.968;2023-05-19T14:05:55;18.10;99.90
18043;DHT22;9146;48.074;11.968;2023-05-19T14:08:23;18.10;99.90
18043;DHT22;9146;48.074;11.968;2023-05-19T14:10:53;18.00;99.90
18043;DHT22;9146;48.074;11.968;2023-05-19T14:13:20;17.90;99.90
18043;DHT22;9146;48.074;11.968;2023-05-19T14:15:47;18.00;99.90
18043;DHT22;9146;48.074;11.968;2023-05-19T14:18:14;17.90;99.90
18043;DHT22;9146;48.074;11.968;2023-05-19T14:20:41;17.80;99.90
18043;DHT22;9146;48.074;11.968;2023-05-19T14:23:08;17.80;99.90
18043;DHT22;9146;48.074;11.968;2023-05-19T14:25:37;17.80;99.90
18043;DHT22;9146;48.074;11.968;2023-05-19T14:28:04;17.90;99.90
18043;DHT22;9146;48.074;11.968;2023-05-19T14:30:31;18.00;99.90
18043;DHT22;9146;48.074;11.968;2023-05-19T14:32:58;17.80;99.90
18043;DHT22;9146;48.074;11.968;2023-05-19T14:35:25;17.70;99.90
18043;DHT22;9146;48.074;11.968;2023-05-19T14:37:52;17.60;99.90
18043;DHT22;9146;48.074;11.968;2023-05-19T14:40:19;17.40;99.90
18043;DHT22;9146;48.074;11.968;2023-05-19T14:42:47;17.40;99.90
18043;DHT22;9146;48.074;11.968;2023-05-19T14:45:14;17.30;99.90
18043;DHT22;9146;48.074;11.968;2023-05-19T14:47:41;17.20;99.90
18043;DHT22;9146;48.074;11.968;2023-05-19T14:50:08;17.30;99.90
18043;DHT22;9146;48.074;11.968;2023-05-19T14:52:35;17.30;99.90
18043;DHT22;9146;48.074;11.968;2023-05-19T14:55:02;17.20;99.90
18043;DHT22;9146;48.074;11.968;2023-05-19T14:57:29;17.20;99.90
18043;DHT22;9146;48.074;11.968;2023-05-19T14:59:58;17.20;99.90
18043;DHT22;9146;48.074;11.968;2023-05-19T15:02:25;17.10;99.90
18043;DHT22;9146;48.074;11.968;2023-05-19T15:04:51;17.10;99.90
18043;DHT22;9146;48.074;11.968;2023-05-19T15:07:18;17.00;99.90
18043;DHT22;9146;48.074;11.968;2023-05-19T15:09:46;17.10;99.90
18043;DHT22;9146;48.074;11.968;2023-05-19T15:12:12;17.20;99.90
18043;DHT22;9146;48.074;11.968;2023-05-19T15:14:39;17.30;99.90
18043;DHT22;9146;48.074;11.968;2023-05-19T15:17:08;17.40;99.90
18043;DHT22;9146;48.074;11.968;2023-05-19T15:19:35;17.60;99.90
18043;DHT22;9146;48.074;11.968;2023-05-19T15:22:02;17.70;99.90
18043;DHT22;9146;48.074;11.968;2023-05-19T15:24:29;17.80;99.90
18043;DHT22;9146;48.074;11.968;2023-05-19T15:26:56;18.10;99.90
18043;DHT22;9146;48.074;11.968;2023-05-19T15:29:22;18.20;99.90
18043;DHT22;9146;48.074;11.968;2023-05-19T15:31:49;18.40;99.90
18043;DHT22;9146;48.074;11.968;2023-05-19T15:34:18;18.50;99.90
18043;DHT22;9146;48.074;11.968;2023-05-19T15:36:46;18.70;99.90
18043;DHT22;9146;48.074;11.968;2023-05-19T15:39:12;18.80;99.90
18043;DHT22;9146;48.074;11.968;2023-05-19T15:41:39;18.90;99.90
18043;DHT22;9146;48.074;11.968;2023-05-19T15:44:06;19.10;99.90
18043;DHT22;9146;48.074;11.968;2023-05-19T15:46:33;19.10;99.90